sensor_id;sensor_type;location;lat;lon;timestamp;P1;durP1;ratioP1;P2;durP2;ratioP2
75499;SDS011;64076;51.466;7.260;2023-01-25T00:00:44;12.50;;;11.20;;
75499;SDS011;64076;51.466;7.260;2023-01-25T00:03:10;13.97;;;11.87;;
75499;SDS011;64076;51.466;7.260;2023-01-25T00:05:35;13.07;;;11.30;;
75499;SDS011;64076;51.466;7.260;2023-01-25T00:08:01;13.43;;;12.00;;
75499;SDS011;64076;51.466;7.260;2023-01-25T00:10:27;13.13;;;11.73;;
75499;SDS011;64076;51.466;7.260;2023-01-25T00:12:52;12.60;;;11.20;;
75499;SDS011;64076;51.466;7.260;2023-01-25T00:15:20;13.07;;;11.57;;
75499;SDS011;64076;51.466;7.260;2023-01-25T00:17:45;12.77;;;10.70;;
75499;SDS011;64076;51.466;7.260;2023-01-25T00:20:11;12.97;;;11.30;;
75499;SDS011;64076;51.466;7.260;2023-01-25T00:22:36;11.93;;;10.68;;
75499;SDS011;64076;51.466;7.260;2023-01-25T00:25:02;13.00;;;11.63;;
75499;SDS011;64076;51.466;7.260;2023-01-25T00:27:28;13.07;;;11.68;;
75499;SDS011;64076;51.466;7.260;2023-01-25T00:29:53;14.17;;;12.43;;
75499;SDS011;64076;51.466;7.260;2023-01-25T00:37:22;14.57;;;12.27;;
75499;SDS011;64076;51.466;7.260;2023-01-25T00:39:52;14.68;;;12.77;;
75499;SDS011;64076;51.466;7.260;2023-01-25T00:42:18;13.73;;;12.03;;
75499;SDS011;64076;51.466;7.260;2023-01-25T00:44:44;14.57;;;12.57;;
75499;SDS011;64076;51.466;7.260;2023-01-25T00:47:10;14.75;;;12.80;;
75499;SDS011;64076;51.466;7.260;2023-01-25T00:49:37;13.77;;;12.32;;
75499;SDS011;64076;51.466;7.260;2023-01-25T00:52:03;15.32;;;12.48;;
75499;SDS011;64076;51.466;7.260;2023-01-25T00:54:29;14.52;;;13.00;;
75499;SDS011;64076;51.466;7.260;2023-01-25T00:56:55;13.87;;;12.03;;
75499;SDS011;64076;51.466;7.260;2023-01-25T00:59:22;14.43;;;12.25;;
75499;SDS011;64076;51.466;7.260;2023-01-25T01:01:48;14.13;;;12.40;;
75499;SDS011;64076;51.466;7.260;2023-01-25T01:04:14;14.55;;;12.02;;
75499;SDS011;64076;51.466;7.260;2023-01-25T01:06:41;13.97;;;12.10;;
75499;SDS011;64076;51.466;7.260;2023-01-25T01:09:10;14.52;;;12.20;;
75499;SDS011;64076;51.466;7.260;2023-01-25T01:11:37;14.50;;;12.10;;
75499;SDS011;64076;51.466;7.260;2023-01-25T01:14:03;13.13;;;11.47;;
75499;SDS011;64076;51.466;7.260;2023-01-25T01:16:29;13.52;;;11.48;;
75499;SDS011;64076;51.466;7.260;2023-01-25T01:18:55;13.02;;;11.63;;
75499;SDS011;64076;51.466;7.260;2023-01-25T01:21:21;12.55;;;11.25;;
75499;SDS011;64076;51.466;7.260;2023-01-25T01:23:47;13.37;;;11.57;;
75499;SDS011;64076;51.466;7.260;2023-01-25T01:26:13;13.13;;;11.40;;
75499;SDS011;64076;51.466;7.260;2023-01-25T01:28:40;12.30;;;11.00;;
75499;SDS011;64076;51.466;7.260;2023-01-25T01:31:07;13.88;;;12.00;;
75499;SDS011;64076;51.466;7.260;2023-01-25T01:33:35;13.80;;;11.98;;
75499;SDS011;64076;51.466;7.260;2023-01-25T01:36:07;13.57;;;11.77;;
75499;SDS011;64076;51.466;7.260;2023-01-25T01:38:33;12.90;;;11.50;;
75499;SDS011;64076;51.466;7.260;2023-01-25T01:40:58;14.77;;;11.75;;
75499;SDS011;64076;51.466;7.260;2023-01-25T01:43:24;13.47;;;12.00;;
75499;SDS011;64076;51.466;7.260;2023-01-25T01:45:51;13.20;;;11.52;;
75499;SDS011;64076;51.466;7.260;2023-01-25T01:51:21;13.87;;;12.07;;
75499;SDS011;64076;51.466;7.260;2023-01-25T01:54:07;13.57;;;12.10;;
75499;SDS011;64076;51.466;7.260;2023-01-25T01:56:49;14.23;;;12.02;;
75499;SDS011;64076;51.466;7.260;2023-01-25T01:59:25;15.52;;;13.13;;
75499;SDS011;64076;51.466;7.260;2023-01-25T02:01:52;15.10;;;12.68;;
75499;SDS011;64076;51.466;7.260;2023-01-25T02:04:18;15.17;;;13.37;;
75499;SDS011;64076;51.466;7.260;2023-01-25T02:06:47;15.48;;;12.68;;
75499;SDS011;64076;51.466;7.260;2023-01-25T02:09:20;15.07;;;12.25;;
75499;SDS011;64076;51.466;7.260;2023-01-25T02:11:49;14.57;;;12.48;;
75499;SDS011;64076;51.466;7.260;2023-01-25T02:14:16;13.85;;;11.73;;
75499;SDS011;64076;51.466;7.260;2023-01-25T02:16:43;14.17;;;11.97;;
75499;SDS011;64076;51.466;7.260;2023-01-25T02:19:12;14.82;;;12.63;;
75499;SDS011;64076;51.466;7.260;2023-01-25T02:21:50;14.50;;;12.13;;
75499;SDS011;64076;51.466;7.260;2023-01-25T02:24:22;14.07;;;12.20;;
75499;SDS011;64076;51.466;7.260;2023-01-25T02:26:55;13.02;;;11.57;;
75499;SDS011;64076;51.466;7.260;2023-01-25T02:29:22;12.90;;;11.50;;
75499;SDS011;64076;51.466;7.260;2023-01-25T02:31:49;13.18;;;11.30;;
75499;SDS011;64076;51.466;7.260;2023-01-25T02:34:23;13.80;;;11.13;;
75499;SDS011;64076;51.466;7.260;2023-01-25T02:36:49;12.50;;;10.85;;
75499;SDS011;64076;51.466;7.260;2023-01-25T02:39:15;11.97;;;10.57;;
75499;SDS011;64076;51.466;7.260;2023-01-25T02:41:43;14.45;;;11.80;;
75499;SDS011;64076;51.466;7.260;2023-01-25T02:44:12;13.82;;;11.80;;
75499;SDS011;64076;51.466;7.260;2023-01-25T02:46:40;13.53;;;11.30;;
75499;SDS011;64076;51.466;7.260;2023-01-25T02:49:07;14.07;;;11.65;;
75499;SDS011;64076;51.466;7.260;2023-01-25T02:51:34;14.23;;;11.40;;
75499;SDS011;64076;51.466;7.260;2023-01-25T02:54:02;13.95;;;11.82;;
75499;SDS011;64076;51.466;7.260;2023-01-25T02:56:29;14.50;;;11.70;;
75499;SDS011;64076;51.466;7.260;2023-01-25T02:58:55;12.90;;;10.93;;
75499;SDS011;64076;51.466;7.260;2023-01-25T03:01:21;14.60;;;11.60;;
75499;SDS011;64076;51.466;7.260;2023-01-25T03:03:47;14.68;;;11.75;;
75499;SDS011;64076;51.466;7.260;2023-01-25T03:06:13;13.70;;;11.90;;
75499;SDS011;64076;51.466;7.260;2023-01-25T03:08:39;13.40;;;11.98;;
75499;SDS011;64076;51.466;7.260;2023-01-25T03:11:05;14.80;;;12.10;;
75499;SDS011;64076;51.466;7.260;2023-01-25T03:13:31;14.98;;;13.25;;
75499;SDS011;64076;51.466;7.260;2023-01-25T03:16:02;15.73;;;12.57;;
75499;SDS011;64076;51.466;7.260;2023-01-25T03:18:29;14.80;;;12.20;;
75499;SDS011;64076;51.466;7.260;2023-01-25T03:20:55;14.50;;;12.00;;
75499;SDS011;64076;51.466;7.260;2023-01-25T03:23:21;14.52;;;12.45;;
75499;SDS011;64076;51.466;7.260;2023-01-25T03:25:46;13.30;;;11.90;;
75499;SDS011;64076;51.466;7.260;2023-01-25T03:28:12;14.90;;;13.00;;
75499;SDS011;64076;51.466;7.260;2023-01-25T03:30:37;13.82;;;11.98;;
75499;SDS011;64076;51.466;7.260;2023-01-25T03:33:03;15.03;;;12.17;;
75499;SDS011;64076;51.466;7.260;2023-01-25T03:35:29;14.00;;;12.50;;
75499;SDS011;64076;51.466;7.260;2023-01-25T03:37:54;13.77;;;11.70;;
75499;SDS011;64076;51.466;7.260;2023-01-25T03:40:20;13.27;;;11.60;;
75499;SDS011;64076;51.466;7.260;2023-01-25T03:42:45;13.90;;;11.97;;
75499;SDS011;64076;51.466;7.260;2023-01-25T03:45:11;14.67;;;12.83;;
75499;SDS011;64076;51.466;7.260;2023-01-25T03:47:38;14.52;;;12.05;;
75499;SDS011;64076;51.466;7.260;2023-01-25T03:50:04;15.17;;;12.60;;
75499;SDS011;64076;51.466;7.260;2023-01-25T03:52:34;13.45;;;11.68;;
75499;SDS011;64076;51.466;7.260;2023-01-25T03:55:09;13.63;;;12.05;;
75499;SDS011;64076;51.466;7.260;2023-01-25T03:57:34;14.50;;;12.20;;
75499;SDS011;64076;51.466;7.260;2023-01-25T04:00:00;14.13;;;12.38;;
75499;SDS011;64076;51.466;7.260;2023-01-25T04:02:25;14.40;;;12.83;;
75499;SDS011;64076;51.466;7.260;2023-01-25T04:04:51;14.97;;;12.20;;
75499;SDS011;64076;51.466;7.260;2023-01-25T04:07:17;13.43;;;11.40;;
75499;SDS011;64076;51.466;7.260;2023-01-25T04:12:11;13.57;;;12.07;;
75499;SDS011;64076;51.466;7.260;2023-01-25T04:14:36;13.60;;;12.00;;
75499;SDS011;64076;51.466;7.260;2023-01-25T04:17:02;13.20;;;11.43;;
75499;SDS011;64076;51.466;7.260;2023-01-25T04:19:29;14.33;;;11.83;;
75499;SDS011;64076;51.466;7.260;2023-01-25T04:21:54;13.93;;;11.98;;
75499;SDS011;64076;51.466;7.260;2023-01-25T04:24:20;13.97;;;11.93;;
75499;SDS011;64076;51.466;7.260;2023-01-25T04:26:45;14.20;;;12.70;;
75499;SDS011;64076;51.466;7.260;2023-01-25T04:29:11;15.85;;;13.60;;
75499;SDS011;64076;51.466;7.260;2023-01-25T04:31:37;14.13;;;12.23;;
75499;SDS011;64076;51.466;7.260;2023-01-25T04:34:02;15.53;;;12.37;;
75499;SDS011;64076;51.466;7.260;2023-01-25T04:36:28;15.02;;;12.60;;
75499;SDS011;64076;51.466;7.260;2023-01-25T04:38:53;15.33;;;12.23;;
75499;SDS011;64076;51.466;7.260;2023-01-25T04:41:19;16.30;;;13.27;;
75499;SDS011;64076;51.466;7.260;2023-01-25T04:43:44;15.18;;;12.13;;
75499;SDS011;64076;51.466;7.260;2023-01-25T04:46:10;15.40;;;12.80;;
75499;SDS011;64076;51.466;7.260;2023-01-25T04:48:35;16.17;;;13.17;;
75499;SDS011;64076;51.466;7.260;2023-01-25T04:51:01;16.37;;;13.27;;
75499;SDS011;64076;51.466;7.260;2023-01-25T04:53:26;14.55;;;12.70;;
75499;SDS011;64076;51.466;7.260;2023-01-25T04:55:52;13.93;;;11.77;;
75499;SDS011;64076;51.466;7.260;2023-01-25T04:58:17;15.13;;;12.80;;
75499;SDS011;64076;51.466;7.260;2023-01-25T05:00:43;15.63;;;12.50;;
75499;SDS011;64076;51.466;7.260;2023-01-25T05:03:09;15.32;;;12.35;;
75499;SDS011;64076;51.466;7.260;2023-01-25T05:05:34;14.20;;;11.90;;
75499;SDS011;64076;51.466;7.260;2023-01-25T05:08:00;14.20;;;12.47;;
75499;SDS011;64076;51.466;7.260;2023-01-25T05:10:26;14.23;;;11.90;;
75499;SDS011;64076;51.466;7.260;2023-01-25T05:12:51;15.10;;;11.53;;
75499;SDS011;64076;51.466;7.260;2023-01-25T05:15:17;14.60;;;11.73;;
75499;SDS011;64076;51.466;7.260;2023-01-25T05:17:42;15.75;;;11.82;;
75499;SDS011;64076;51.466;7.260;2023-01-25T05:20:08;14.57;;;12.17;;
75499;SDS011;64076;51.466;7.260;2023-01-25T05:22:34;14.32;;;11.82;;
75499;SDS011;64076;51.466;7.260;2023-01-25T05:25:00;13.93;;;11.40;;
75499;SDS011;64076;51.466;7.260;2023-01-25T05:27:26;15.25;;;11.63;;
75499;SDS011;64076;51.466;7.260;2023-01-25T05:29:52;15.27;;;11.80;;
75499;SDS011;64076;51.466;7.260;2023-01-25T05:32:19;13.77;;;11.45;;
75499;SDS011;64076;51.466;7.260;2023-01-25T05:34:46;14.30;;;11.50;;
75499;SDS011;64076;51.466;7.260;2023-01-25T05:37:13;14.50;;;11.32;;
75499;SDS011;64076;51.466;7.260;2023-01-25T05:39:40;13.87;;;11.30;;
75499;SDS011;64076;51.466;7.260;2023-01-25T05:42:09;13.98;;;11.23;;
75499;SDS011;64076;51.466;7.260;2023-01-25T05:44:36;16.15;;;12.07;;
75499;SDS011;64076;51.466;7.260;2023-01-25T05:47:02;15.07;;;11.80;;
75499;SDS011;64076;51.466;7.260;2023-01-25T05:49:27;16.17;;;12.37;;
75499;SDS011;64076;51.466;7.260;2023-01-25T05:51:53;15.65;;;12.00;;
75499;SDS011;64076;51.466;7.260;2023-01-25T05:54:18;15.60;;;11.67;;
75499;SDS011;64076;51.466;7.260;2023-01-25T05:56:44;15.27;;;11.60;;
75499;SDS011;64076;51.466;7.260;2023-01-25T05:59:10;15.57;;;11.57;;
75499;SDS011;64076;51.466;7.260;2023-01-25T06:01:37;15.18;;;11.80;;
75499;SDS011;64076;51.466;7.260;2023-01-25T06:04:03;16.60;;;12.17;;
75499;SDS011;64076;51.466;7.260;2023-01-25T06:06:28;16.50;;;11.90;;
75499;SDS011;64076;51.466;7.260;2023-01-25T06:08:54;16.87;;;11.87;;
75499;SDS011;64076;51.466;7.260;2023-01-25T06:11:20;15.87;;;11.67;;
75499;SDS011;64076;51.466;7.260;2023-01-25T06:13:48;15.82;;;11.88;;
75499;SDS011;64076;51.466;7.260;2023-01-25T06:16:15;15.48;;;11.45;;
75499;SDS011;64076;51.466;7.260;2023-01-25T06:18:42;14.75;;;10.38;;
75499;SDS011;64076;51.466;7.260;2023-01-25T06:21:08;14.20;;;10.25;;
75499;SDS011;64076;51.466;7.260;2023-01-25T06:23:34;13.80;;;9.43;;
75499;SDS011;64076;51.466;7.260;2023-01-25T06:26:01;12.73;;;9.18;;
75499;SDS011;64076;51.466;7.260;2023-01-25T06:28:32;13.00;;;9.35;;
75499;SDS011;64076;51.466;7.260;2023-01-25T06:31:17;11.85;;;8.75;;
75499;SDS011;64076;51.466;7.260;2023-01-25T06:33:46;12.45;;;8.35;;
75499;SDS011;64076;51.466;7.260;2023-01-25T06:36:14;11.23;;;8.30;;
75499;SDS011;64076;51.466;7.260;2023-01-25T06:38:41;12.95;;;8.77;;
75499;SDS011;64076;51.466;7.260;2023-01-25T06:41:08;11.70;;;8.05;;
75499;SDS011;64076;51.466;7.260;2023-01-25T06:43:34;11.73;;;8.00;;
75499;SDS011;64076;51.466;7.260;2023-01-25T06:46:01;10.50;;;7.20;;
75499;SDS011;64076;51.466;7.260;2023-01-25T06:48:28;10.10;;;7.50;;
75499;SDS011;64076;51.466;7.260;2023-01-25T06:50:56;9.80;;;7.18;;
75499;SDS011;64076;51.466;7.260;2023-01-25T06:53:30;10.02;;;6.90;;
75499;SDS011;64076;51.466;7.260;2023-01-25T06:55:59;8.63;;;6.18;;
75499;SDS011;64076;51.466;7.260;2023-01-25T06:58:26;8.97;;;6.70;;
75499;SDS011;64076;51.466;7.260;2023-01-25T07:00:53;8.32;;;6.40;;
75499;SDS011;64076;51.466;7.260;2023-01-25T07:03:23;9.52;;;6.70;;
75499;SDS011;64076;51.466;7.260;2023-01-25T07:05:48;11.20;;;6.70;;
75499;SDS011;64076;51.466;7.260;2023-01-25T07:08:15;10.25;;;7.20;;
75499;SDS011;64076;51.466;7.260;2023-01-25T07:10:42;10.05;;;7.28;;
75499;SDS011;64076;51.466;7.260;2023-01-25T07:13:08;13.67;;;7.27;;
75499;SDS011;64076;51.466;7.260;2023-01-25T07:15:33;13.67;;;7.10;;
75499;SDS011;64076;51.466;7.260;2023-01-25T07:17:59;17.17;;;7.38;;
75499;SDS011;64076;51.466;7.260;2023-01-25T07:20:24;19.40;;;7.40;;
75499;SDS011;64076;51.466;7.260;2023-01-25T07:22:50;11.53;;;6.77;;
75499;SDS011;64076;51.466;7.260;2023-01-25T07:25:15;16.42;;;8.23;;
75499;SDS011;64076;51.466;7.260;2023-01-25T07:27:41;13.37;;;7.77;;
75499;SDS011;64076;51.466;7.260;2023-01-25T07:30:06;13.93;;;7.90;;
75499;SDS011;64076;51.466;7.260;2023-01-25T07:32:33;16.05;;;8.07;;
75499;SDS011;64076;51.466;7.260;2023-01-25T07:34:59;13.90;;;8.60;;
75499;SDS011;64076;51.466;7.260;2023-01-25T07:37:24;16.33;;;9.52;;
75499;SDS011;64076;51.466;7.260;2023-01-25T07:39:51;16.70;;;9.48;;
75499;SDS011;64076;51.466;7.260;2023-01-25T07:42:17;17.03;;;11.50;;
75499;SDS011;64076;51.466;7.260;2023-01-25T07:44:43;19.97;;;12.47;;
75499;SDS011;64076;51.466;7.260;2023-01-25T07:47:08;23.45;;;14.63;;
75499;SDS011;64076;51.466;7.260;2023-01-25T07:49:34;21.02;;;15.02;;
75499;SDS011;64076;51.466;7.260;2023-01-25T07:52:00;28.93;;;16.30;;
75499;SDS011;64076;51.466;7.260;2023-01-25T07:54:26;26.35;;;16.05;;
75499;SDS011;64076;51.466;7.260;2023-01-25T07:56:52;26.50;;;17.05;;
75499;SDS011;64076;51.466;7.260;2023-01-25T07:59:18;30.47;;;18.67;;
75499;SDS011;64076;51.466;7.260;2023-01-25T08:01:44;25.52;;;17.60;;
75499;SDS011;64076;51.466;7.260;2023-01-25T08:04:10;33.22;;;18.95;;
75499;SDS011;64076;51.466;7.260;2023-01-25T08:06:36;46.20;;;28.33;;
75499;SDS011;64076;51.466;7.260;2023-01-25T08:09:13;34.05;;;19.52;;
75499;SDS011;64076;51.466;7.260;2023-01-25T08:11:40;26.93;;;17.00;;
75499;SDS011;64076;51.466;7.260;2023-01-25T08:14:06;30.60;;;17.02;;
75499;SDS011;64076;51.466;7.260;2023-01-25T08:16:33;31.00;;;17.23;;
75499;SDS011;64076;51.466;7.260;2023-01-25T08:18:59;31.45;;;19.10;;
75499;SDS011;64076;51.466;7.260;2023-01-25T08:21:26;25.17;;;15.23;;
75499;SDS011;64076;51.466;7.260;2023-01-25T08:23:56;29.37;;;17.30;;
75499;SDS011;64076;51.466;7.260;2023-01-25T08:26:22;25.48;;;15.70;;
75499;SDS011;64076;51.466;7.260;2023-01-25T08:28:48;28.15;;;16.80;;
75499;SDS011;64076;51.466;7.260;2023-01-25T08:31:19;28.35;;;16.23;;
75499;SDS011;64076;51.466;7.260;2023-01-25T08:33:45;25.38;;;15.38;;
75499;SDS011;64076;51.466;7.260;2023-01-25T08:36:11;26.77;;;16.10;;
75499;SDS011;64076;51.466;7.260;2023-01-25T08:38:38;24.67;;;15.80;;
75499;SDS011;64076;51.466;7.260;2023-01-25T08:41:04;28.48;;;16.70;;
75499;SDS011;64076;51.466;7.260;2023-01-25T08:43:30;27.73;;;16.73;;
75499;SDS011;64076;51.466;7.260;2023-01-25T08:45:56;28.63;;;16.10;;
75499;SDS011;64076;51.466;7.260;2023-01-25T08:48:22;33.30;;;19.30;;
75499;SDS011;64076;51.466;7.260;2023-01-25T08:50:48;31.60;;;19.42;;
75499;SDS011;64076;51.466;7.260;2023-01-25T08:53:14;28.85;;;16.42;;
75499;SDS011;64076;51.466;7.260;2023-01-25T08:55:40;27.87;;;15.97;;
75499;SDS011;64076;51.466;7.260;2023-01-25T08:58:08;28.33;;;15.90;;
75499;SDS011;64076;51.466;7.260;2023-01-25T09:00:36;24.73;;;14.38;;
75499;SDS011;64076;51.466;7.260;2023-01-25T09:03:02;29.83;;;16.03;;
75499;SDS011;64076;51.466;7.260;2023-01-25T09:05:28;26.90;;;16.38;;
75499;SDS011;64076;51.466;7.260;2023-01-25T09:07:54;41.23;;;16.67;;
75499;SDS011;64076;51.466;7.260;2023-01-25T09:10:20;27.77;;;16.55;;
75499;SDS011;64076;51.466;7.260;2023-01-25T09:12:45;32.25;;;16.13;;
75499;SDS011;64076;51.466;7.260;2023-01-25T09:15:11;31.02;;;17.00;;
75499;SDS011;64076;51.466;7.260;2023-01-25T09:17:37;34.70;;;18.07;;
75499;SDS011;64076;51.466;7.260;2023-01-25T09:20:05;35.38;;;19.55;;
75499;SDS011;64076;51.466;7.260;2023-01-25T09:22:31;41.30;;;24.42;;
75499;SDS011;64076;51.466;7.260;2023-01-25T09:24:57;36.42;;;21.50;;
75499;SDS011;64076;51.466;7.260;2023-01-25T09:27:23;30.97;;;18.57;;
75499;SDS011;64076;51.466;7.260;2023-01-25T09:29:49;28.67;;;17.20;;
75499;SDS011;64076;51.466;7.260;2023-01-25T09:32:15;27.23;;;15.93;;
75499;SDS011;64076;51.466;7.260;2023-01-25T09:34:41;23.23;;;14.75;;
75499;SDS011;64076;51.466;7.260;2023-01-25T09:37:07;25.23;;;13.63;;
75499;SDS011;64076;51.466;7.260;2023-01-25T09:39:33;21.83;;;13.25;;
75499;SDS011;64076;51.466;7.260;2023-01-25T09:42:08;20.17;;;12.02;;
75499;SDS011;64076;51.466;7.260;2023-01-25T09:44:45;18.98;;;11.73;;
75499;SDS011;64076;51.466;7.260;2023-01-25T09:47:28;19.77;;;11.65;;
75499;SDS011;64076;51.466;7.260;2023-01-25T09:55:20;15.52;;;9.18;;
75499;SDS011;64076;51.466;7.260;2023-01-25T09:57:46;13.80;;;8.88;;
75499;SDS011;64076;51.466;7.260;2023-01-25T10:00:20;12.77;;;8.30;;
75499;SDS011;64076;51.466;7.260;2023-01-25T10:02:53;11.87;;;7.90;;
75499;SDS011;64076;51.466;7.260;2023-01-25T10:05:29;14.30;;;8.38;;
75499;SDS011;64076;51.466;7.260;2023-01-25T10:08:05;11.88;;;8.07;;
75499;SDS011;64076;51.466;7.260;2023-01-25T10:10:41;12.00;;;7.93;;
75499;SDS011;64076;51.466;7.260;2023-01-25T10:13:12;14.30;;;8.07;;
75499;SDS011;64076;51.466;7.260;2023-01-25T10:15:44;11.43;;;7.50;;
75499;SDS011;64076;51.466;7.260;2023-01-25T10:18:30;12.50;;;8.43;;
75499;SDS011;64076;51.466;7.260;2023-01-25T10:22:11;13.40;;;6.93;;
75499;SDS011;64076;51.466;7.260;2023-01-25T10:24:12;11.60;;;7.45;;
75499;SDS011;64076;51.466;7.260;2023-01-25T10:26:42;10.32;;;7.40;;
75499;SDS011;64076;51.466;7.260;2023-01-25T10:29:15;12.70;;;7.97;;
75499;SDS011;64076;51.466;7.260;2023-01-25T10:31:50;12.73;;;8.02;;
75499;SDS011;64076;51.466;7.260;2023-01-25T10:34:22;11.65;;;7.85;;
75499;SDS011;64076;51.466;7.260;2023-01-25T10:37:01;12.25;;;7.20;;
75499;SDS011;64076;51.466;7.260;2023-01-25T10:39:35;12.85;;;8.05;;
75499;SDS011;64076;51.466;7.260;2023-01-25T10:42:05;10.90;;;7.13;;
75499;SDS011;64076;51.466;7.260;2023-01-25T10:44:35;11.23;;;7.05;;
75499;SDS011;64076;51.466;7.260;2023-01-25T10:47:06;11.75;;;7.40;;
75499;SDS011;64076;51.466;7.260;2023-01-25T10:49:52;10.68;;;6.90;;
75499;SDS011;64076;51.466;7.260;2023-01-25T10:52:23;10.23;;;6.60;;
75499;SDS011;64076;51.466;7.260;2023-01-25T10:57:42;10.10;;;6.63;;
75499;SDS011;64076;51.466;7.260;2023-01-25T11:03:02;9.77;;;7.03;;
75499;SDS011;64076;51.466;7.260;2023-01-25T11:05:31;9.27;;;6.00;;
75499;SDS011;64076;51.466;7.260;2023-01-25T11:10:45;10.05;;;5.80;;
75499;SDS011;64076;51.466;7.260;2023-01-25T11:15:47;9.35;;;5.82;;
75499;SDS011;64076;51.466;7.260;2023-01-25T11:21:02;8.85;;;5.63;;
75499;SDS011;64076;51.466;7.260;2023-01-25T11:23:36;8.57;;;5.78;;
75499;SDS011;64076;51.466;7.260;2023-01-25T11:26:11;9.87;;;5.63;;
75499;SDS011;64076;51.466;7.260;2023-01-25T11:28:41;7.88;;;5.63;;
75499;SDS011;64076;51.466;7.260;2023-01-25T11:31:12;8.20;;;5.35;;
75499;SDS011;64076;51.466;7.260;2023-01-25T11:33:44;7.80;;;5.57;;
75499;SDS011;64076;51.466;7.260;2023-01-25T11:38:36;9.57;;;5.70;;
75499;SDS011;64076;51.466;7.260;2023-01-25T11:50:01;7.35;;;5.28;;
75499;SDS011;64076;51.466;7.260;2023-01-25T11:55:26;8.40;;;5.63;;
75499;SDS011;64076;51.466;7.260;2023-01-25T12:00:44;8.32;;;5.90;;
75499;SDS011;64076;51.466;7.260;2023-01-25T12:14:29;9.25;;;6.18;;
75499;SDS011;64076;51.466;7.260;2023-01-25T12:22:59;10.13;;;6.40;;
75499;SDS011;64076;51.466;7.260;2023-01-25T12:28:24;9.77;;;6.37;;
75499;SDS011;64076;51.466;7.260;2023-01-25T12:31:25;10.05;;;6.78;;
75499;SDS011;64076;51.466;7.260;2023-01-25T12:34:07;9.43;;;6.50;;
75499;SDS011;64076;51.466;7.260;2023-01-25T12:36:44;11.98;;;7.20;;
75499;SDS011;64076;51.466;7.260;2023-01-25T12:39:32;12.20;;;7.60;;
75499;SDS011;64076;51.466;7.260;2023-01-25T12:42:15;13.43;;;9.13;;
75499;SDS011;64076;51.466;7.260;2023-01-25T12:44:58;11.75;;;7.88;;
75499;SDS011;64076;51.466;7.260;2023-01-25T12:47:38;12.35;;;8.18;;
75499;SDS011;64076;51.466;7.260;2023-01-25T12:50:12;10.95;;;7.70;;
75499;SDS011;64076;51.466;7.260;2023-01-25T12:52:50;12.93;;;8.40;;
75499;SDS011;64076;51.466;7.260;2023-01-25T12:55:18;13.18;;;8.30;;
75499;SDS011;64076;51.466;7.260;2023-01-25T13:05:50;16.33;;;10.20;;
75499;SDS011;64076;51.466;7.260;2023-01-25T13:11:37;19.17;;;10.73;;
75499;SDS011;64076;51.466;7.260;2023-01-25T13:16:48;15.85;;;10.57;;
75499;SDS011;64076;51.466;7.260;2023-01-25T13:21:53;16.35;;;11.15;;
75499;SDS011;64076;51.466;7.260;2023-01-25T13:24:23;17.70;;;11.07;;
75499;SDS011;64076;51.466;7.260;2023-01-25T13:32:03;15.60;;;10.32;;
75499;SDS011;64076;51.466;7.260;2023-01-25T13:37:27;13.20;;;9.10;;
75499;SDS011;64076;51.466;7.260;2023-01-25T13:39:55;15.30;;;9.40;;
75499;SDS011;64076;51.466;7.260;2023-01-25T13:42:25;13.82;;;9.35;;
75499;SDS011;64076;51.466;7.260;2023-01-25T13:44:54;11.37;;;7.97;;
75499;SDS011;64076;51.466;7.260;2023-01-25T13:47:27;13.25;;;8.50;;
75499;SDS011;64076;51.466;7.260;2023-01-25T13:52:58;11.80;;;7.80;;
75499;SDS011;64076;51.466;7.260;2023-01-25T13:55:28;10.73;;;7.50;;
75499;SDS011;64076;51.466;7.260;2023-01-25T13:58:15;12.57;;;7.63;;
75499;SDS011;64076;51.466;7.260;2023-01-25T14:00:49;12.48;;;7.68;;
75499;SDS011;64076;51.466;7.260;2023-01-25T14:03:25;10.88;;;7.38;;
75499;SDS011;64076;51.466;7.260;2023-01-25T14:05:56;12.27;;;7.78;;
75499;SDS011;64076;51.466;7.260;2023-01-25T14:08:23;10.63;;;7.45;;
75499;SDS011;64076;51.466;7.260;2023-01-25T14:10:50;10.23;;;7.23;;
75499;SDS011;64076;51.466;7.260;2023-01-25T14:13:16;10.63;;;7.47;;
75499;SDS011;64076;51.466;7.260;2023-01-25T14:15:56;11.45;;;7.03;;
75499;SDS011;64076;51.466;7.260;2023-01-25T14:18:30;11.30;;;7.55;;
75499;SDS011;64076;51.466;7.260;2023-01-25T14:21:08;13.27;;;7.90;;
75499;SDS011;64076;51.466;7.260;2023-01-25T14:23:36;11.90;;;8.47;;
75499;SDS011;64076;51.466;7.260;2023-01-25T14:26:02;13.68;;;8.95;;
75499;SDS011;64076;51.466;7.260;2023-01-25T14:28:28;14.38;;;8.82;;
75499;SDS011;64076;51.466;7.260;2023-01-25T14:30:55;14.80;;;9.25;;
75499;SDS011;64076;51.466;7.260;2023-01-25T14:36:07;17.95;;;10.63;;
75499;SDS011;64076;51.466;7.260;2023-01-25T14:38:37;14.88;;;10.27;;
75499;SDS011;64076;51.466;7.260;2023-01-25T14:41:12;18.02;;;10.20;;
75499;SDS011;64076;51.466;7.260;2023-01-25T14:43:56;15.93;;;9.40;;
75499;SDS011;64076;51.466;7.260;2023-01-25T14:46:24;12.90;;;8.53;;
75499;SDS011;64076;51.466;7.260;2023-01-25T14:57:15;16.38;;;8.73;;
75499;SDS011;64076;51.466;7.260;2023-01-25T15:00:02;15.30;;;8.60;;
75499;SDS011;64076;51.466;7.260;2023-01-25T15:02:43;14.93;;;9.30;;
75499;SDS011;64076;51.466;7.260;2023-01-25T15:05:17;15.93;;;8.90;;
75499;SDS011;64076;51.466;7.260;2023-01-25T15:07:54;15.18;;;9.23;;
75499;SDS011;64076;51.466;7.260;2023-01-25T15:10:49;14.30;;;8.93;;
75499;SDS011;64076;51.466;7.260;2023-01-25T15:13:20;14.47;;;9.10;;
75499;SDS011;64076;51.466;7.260;2023-01-25T15:15:55;15.57;;;9.05;;
75499;SDS011;64076;51.466;7.260;2023-01-25T15:18:45;14.90;;;8.85;;
75499;SDS011;64076;51.466;7.260;2023-01-25T15:21:18;14.30;;;9.15;;
75499;SDS011;64076;51.466;7.260;2023-01-25T15:23:52;13.57;;;9.15;;
75499;SDS011;64076;51.466;7.260;2023-01-25T15:28:49;15.70;;;9.82;;
75499;SDS011;64076;51.466;7.260;2023-01-25T15:31:18;14.43;;;9.35;;
75499;SDS011;64076;51.466;7.260;2023-01-25T15:33:54;13.93;;;9.27;;
75499;SDS011;64076;51.466;7.260;2023-01-25T15:36:20;15.25;;;9.45;;
75499;SDS011;64076;51.466;7.260;2023-01-25T15:38:46;15.20;;;9.57;;
75499;SDS011;64076;51.466;7.260;2023-01-25T15:41:11;14.70;;;9.50;;
75499;SDS011;64076;51.466;7.260;2023-01-25T15:43:38;14.13;;;9.25;;
75499;SDS011;64076;51.466;7.260;2023-01-25T15:46:04;14.25;;;9.82;;
75499;SDS011;64076;51.466;7.260;2023-01-25T15:48:35;13.40;;;9.43;;
75499;SDS011;64076;51.466;7.260;2023-01-25T15:51:04;14.73;;;9.87;;
75499;SDS011;64076;51.466;7.260;2023-01-25T15:53:30;14.48;;;9.13;;
75499;SDS011;64076;51.466;7.260;2023-01-25T15:56:00;14.37;;;9.77;;
75499;SDS011;64076;51.466;7.260;2023-01-25T15:58:41;15.05;;;10.02;;
75499;SDS011;64076;51.466;7.260;2023-01-25T16:01:09;16.27;;;10.60;;
75499;SDS011;64076;51.466;7.260;2023-01-25T16:03:35;13.90;;;9.43;;
75499;SDS011;64076;51.466;7.260;2023-01-25T16:06:01;15.23;;;10.10;;
75499;SDS011;64076;51.466;7.260;2023-01-25T16:08:29;15.73;;;10.48;;
75499;SDS011;64076;51.466;7.260;2023-01-25T16:10:55;14.43;;;9.67;;
75499;SDS011;64076;51.466;7.260;2023-01-25T16:13:21;15.07;;;10.13;;
75499;SDS011;64076;51.466;7.260;2023-01-25T16:15:48;15.00;;;10.43;;
75499;SDS011;64076;51.466;7.260;2023-01-25T16:18:16;14.57;;;9.90;;
75499;SDS011;64076;51.466;7.260;2023-01-25T16:20:41;15.67;;;10.73;;
75499;SDS011;64076;51.466;7.260;2023-01-25T16:23:07;15.43;;;10.93;;